Time;durP1;ratioP1;P1;durP2;ratioP2;P2;SDS_P1;SDS_P2;PMS_P1;PMS_P2;Temp;Humidity;BMP_temperature;BMP_pressure;BME280_temperature;BME280_humidity;BME280_pressure;Samples;Min_cycle;Max_cycle;Signal;HPM_P1;HPM_P2
2021/03/13 00:01:08;;;;;;;4.10;0.60;;;;;;;5.47;100.00;99664.75;20977596;28;20495;-69
2021/03/13 00:11:10;;;;;;;3.17;0.55;;;;;;;5.39;100.00;99662.50;20984185;28;20123;-68
2021/03/13 00:21:11;;;;;;;2.30;0.65;;;;;;;5.46;100.00;99634.53;20983243;28;20048;-69
2021/03/13 00:31:12;;;;;;;1.58;0.60;;;;;;;5.39;100.00;99620.97;20982837;28;20098;-69
2021/03/13 00:41:13;;;;;;;2.10;0.82;;;;;;;5.59;100.00;99617.47;20996611;28;20737;-70
2021/03/13 00:51:14;;;;;;;3.05;1.00;;;;;;;5.52;100.00;99603.09;20997446;28;20044;-70
2021/03/13 01:01:15;;;;;;;3.20;1.00;;;;;;;5.60;100.00;99588.00;20996240;28;20500;-69
2021/03/13 01:11:16;;;;;;;3.45;0.80;;;;;;;5.64;100.00;99566.16;20995506;28;20439;-68
2021/03/13 01:21:17;;;;;;;4.63;1.00;;;;;;;5.74;100.00;99570.00;20995448;28;20101;-70
2021/03/13 01:31:18;;;;;;;1.88;0.55;;;;;;;5.81;100.00;99557.59;20993297;28;20117;-70
2021/03/13 01:41:19;;;;;;;3.63;0.75;;;;;;;5.83;100.00;99514.22;20993851;28;20414;-69
2021/03/13 01:51:20;;;;;;;2.83;0.68;;;;;;;5.91;100.00;99510.34;20992112;28;20053;-69
2021/03/13 02:01:21;;;;;;;3.85;0.70;;;;;;;5.98;100.00;99472.78;20991241;28;20091;-69
2021/03/13 02:11:42;;;;;;;5.18;0.80;;;;;;;6.06;100.00;99459.38;20991309;28;20044;-70
2021/03/13 02:21:57;;;;;;;7.15;1.17;;;;;;;6.06;100.00;99419.59;20990627;28;20048;-70
2021/03/13 02:32:03;;;;;;;7.05;1.08;;;;;;;6.01;100.00;99414.63;20989669;28;20098;-68
2021/03/13 02:42:06;;;;;;;6.32;1.00;;;;;;;6.15;100.00;99390.53;20988861;28;20583;-68
2021/03/13 02:52:07;;;;;;;5.18;1.20;;;;;;;6.30;100.00;99376.72;20988705;28;20408;-68
2021/03/13 03:02:09;;;;;;;5.97;1.20;;;;;;;6.34;100.00;99347.94;20987084;28;20048;-69
2021/03/13 03:12:12;;;;;;;5.88;1.20;;;;;;;6.48;100.00;99354.13;20987169;28;20048;-69
2021/03/13 03:22:14;;;;;;;7.20;1.17;;;;;;;6.52;100.00;99353.88;20986339;28;20047;-70
2021/03/13 03:32:15;;;;;;;6.45;1.00;;;;;;;6.66;100.00;99364.34;20985280;28;20495;-70
2021/03/13 03:42:18;;;;;;;5.45;1.08;;;;;;;6.51;100.00;99348.75;20984735;28;20044;-69
2021/03/13 03:52:19;;;;;;;7.05;1.08;;;;;;;6.47;100.00;99345.50;20985024;28;20053;-68
2021/03/13 04:02:22;;;;;;;4.35;0.90;;;;;;;6.52;100.00;99340.88;20984050;28;20056;-68
2021/03/13 04:12:23;;;;;;;7.93;1.58;;;;;;;6.49;100.00;99335.00;20992396;28;20043;-69
2021/03/13 04:22:25;;;;;;;8.18;1.35;;;;;;;6.46;100.00;99320.41;20999813;28;20048;-69
2021/03/13 04:32:26;;;;;;;6.32;1.27;;;;;;;6.54;100.00;99313.06;20998527;28;20097;-69
2021/03/13 04:42:29;;;;;;;5.93;0.90;;;;;;;6.37;100.00;99279.34;20999463;28;20036;-68
2021/03/13 04:52:30;;;;;;;6.25;1.00;;;;;;;6.54;99.98;99273.22;20997731;28;20044;-69
2021/03/13 05:02:31;;;;;;;7.82;1.05;;;;;;;6.51;99.60;99250.81;20995926;28;20064;-69
2021/03/13 05:12:33;;;;;;;5.90;1.10;;;;;;;6.63;97.47;99244.94;20996336;28;20434;-69
2021/03/13 05:22:35;;;;;;;9.75;1.08;;;;;;;6.68;95.74;99222.13;20993990;28;20522;-69
2021/03/13 05:32:36;;;;;;;5.47;1.30;;;;;;;6.71;95.76;99189.88;20993674;28;20052;-69
2021/03/13 05:42:39;;;;;;;10.07;1.95;;;;;;;6.67;95.58;99167.59;20994192;28;20048;-69
2021/03/13 05:52:43;;;;;;;4.95;0.70;;;;;;;6.70;93.58;99157.03;20993372;28;20055;-69
2021/03/13 06:02:45;;;;;;;7.77;1.20;;;;;;;6.88;90.95;99148.13;20993739;28;20052;-69
2021/03/13 06:12:46;;;;;;;5.93;1.13;;;;;;;7.12;88.34;99131.06;20993726;28;20487;-69
2021/03/13 06:22:47;;;;;;;10.98;1.63;;;;;;;7.17;88.42;99095.19;20992293;28;20066;-69
2021/03/13 06:32:48;;;;;;;6.90;1.17;;;;;;;7.40;84.03;99085.97;20991579;28;20392;-69
2021/03/13 06:42:49;;;;;;;6.53;1.10;;;;;;;7.71;82.91;99087.50;20991240;28;20480;-69
2021/03/13 06:52:54;;;;;;;7.93;1.27;;;;;;;7.73;81.56;99062.16;20990171;28;20408;-72
2021/03/13 07:03:11;;;;;;;7.40;1.30;;;;;;;7.94;81.34;99039.09;20988953;28;20045;-69
2021/03/13 07:13:30;;;;;;;7.45;1.00;;;;;;;8.27;79.37;99016.06;20996203;28;20070;-70
2021/03/13 07:23:31;;;;;;;4.93;0.98;;;;;;;8.30;77.49;99021.09;20996095;28;20040;-70
2021/03/13 07:33:32;;;;;;;5.32;1.00;;;;;;;8.53;77.12;99002.09;20977550;28;20581;-69
2021/03/13 07:43:35;;;;;;;4.72;1.10;;;;;;;8.67;74.92;99008.16;20994561;28;20044;-70
2021/03/13 07:53:39;;;;;;;8.05;1.30;;;;;;;8.90;73.16;98999.56;20999239;28;20036;-69
2021/03/13 08:03:43;;;;;;;6.53;1.20;;;;;;;8.88;72.75;98975.38;20955464;28;20418;-70
2021/03/13 08:13:56;;;;;;;3.65;0.57;;;;;;;9.02;70.40;98985.66;20974885;28;20052;-70
2021/03/13 08:24:01;;;;;;;6.43;1.05;;;;;;;9.12;69.08;98973.63;20976390;28;20048;-70
2021/03/13 08:34:04;;;;;;;4.45;0.80;;;;;;;9.09;71.78;98942.56;20954735;28;20048;-69
2021/03/13 08:44:06;;;;;;;5.10;1.00;;;;;;;9.38;69.31;98943.88;20969940;28;20048;-69
2021/03/13 08:54:08;;;;;;;7.15;1.05;;;;;;;9.35;69.85;98920.59;20962675;28;20048;-68
2021/03/13 09:04:09;;;;;;;4.07;1.00;;;;;;;9.01;72.09;98934.41;20947107;28;20551;-69
2021/03/13 09:14:16;;;;;;;3.35;0.63;;;;;;;8.76;70.21;98908.41;20937575;28;20045;-69
2021/03/13 09:24:31;;;;;;;4.25;1.00;;;;;;;8.74;72.74;98895.44;20909254;28;20051;-69
2021/03/13 09:34:34;;;;;;;3.50;0.80;;;;;;;8.33;81.77;98893.13;20944953;28;20045;-68
2021/03/13 09:44:39;;;;;;;3.97;1.20;;;;;;;7.95;87.08;98900.94;20962022;28;20537;-70
2021/03/13 09:54:41;;;;;;;6.00;0.90;;;;;;;7.71;91.78;98913.84;20990875;28;20122;-70
2021/03/13 10:04:43;;;;;;;4.68;0.77;;;;;;;7.73;91.76;98882.47;20991347;28;20421;-71
2021/03/13 10:15:17;;;;;;;4.50;1.50;;;;;;;7.79;90.91;98887.28;20981358;28;20098;-70
2021/03/13 10:25:19;;;;;;;2.95;0.90;;;;;;;7.90;91.86;98879.56;20976704;28;20516;-70
2021/03/13 10:35:22;;;;;;;5.35;0.95;;;;;;;7.82;94.44;98866.25;20986272;28;20106;-71
2021/03/13 10:45:28;;;;;;;5.38;1.88;;;;;;;7.81;95.99;98855.94;20983718;28;20075;-70
2021/03/13 10:55:39;;;;;;;6.10;1.10;;;;;;;7.86;94.70;98867.69;20984300;28;20040;-71
2021/03/13 11:05:40;;;;;;;2.03;0.85;;;;;;;7.68;96.84;98903.59;20981850;28;20045;-70
2021/03/13 11:15:45;;;;;;;;;;;;;;;7.69;99.05;98902.69;21893731;23;20126;-73
2021/03/13 11:25:48;;;;;;;6.07;1.70;;;;;;;7.68;100.00;98914.03;20971701;28;20302;-72
2021/03/13 11:35:50;;;;;;;3.67;1.20;;;;;;;7.92;99.19;98922.00;20981126;28;20430;-71
2021/03/13 11:46:04;;;;;;;4.65;1.67;;;;;;;7.97;96.73;98956.41;20930616;28;20086;-70
2021/03/13 11:56:05;;;;;;;4.70;1.98;;;;;;;7.82;96.25;99034.72;20982225;28;20044;-72
2021/03/13 12:06:07;;;;;;;0.32;0.10;;;;;;;6.21;99.69;99086.25;20962747;28;20061;-71
2021/03/13 12:16:26;;;;;;;0.20;0.10;;;;;;;6.13;99.68;99111.81;20964379;28;20101;-70
2021/03/13 12:26:27;;;;;;;2.58;0.30;;;;;;;6.51;92.89;99100.06;20979627;28;20044;-69
2021/03/13 12:36:29;;;;;;;1.73;0.40;;;;;;;6.13;94.22;99098.84;20992422;28;20094;-70
2021/03/13 12:46:48;;;;;;;4.18;0.77;;;;;;;6.13;94.46;99041.69;20999647;28;20052;-70
2021/03/13 12:56:49;;;;;;;5.53;1.00;;;;;;;5.98;93.18;99033.88;20996152;28;20392;-70
2021/03/13 13:06:50;;;;;;;7.50;1.17;;;;;;;5.93;93.26;99040.25;20992493;28;20044;-71
2021/03/13 13:17:07;;;;;;;7.72;1.50;;;;;;;5.83;92.79;99015.69;20977148;28;20068;-71
2021/03/13 13:27:08;;;;;;;8.18;2.15;;;;;;;6.35;90.58;99006.56;20987110;28;20090;-71
2021/03/13 13:37:09;;;;;;;7.30;1.73;;;;;;;6.51;88.87;99006.47;20976630;28;20124;-71
2021/03/13 13:47:10;;;;;;;8.25;2.10;;;;;;;6.84;87.99;98996.66;20970896;28;20041;-72
2021/03/13 13:57:11;;;;;;;14.00;4.30;;;;;;;7.04;86.54;98990.22;20970684;28;20041;-72
2021/03/13 14:07:12;;;;;;;5.85;1.80;;;;;;;7.08;84.80;98994.28;20970354;28;20048;-72
2021/03/13 14:17:13;;;;;;;4.93;1.13;;;;;;;7.13;84.36;99020.84;20952171;28;20377;-72
2021/03/13 14:27:16;;;;;;;6.55;2.10;;;;;;;7.34;79.97;99018.69;20990394;28;20094;-72
2021/03/13 14:37:16;;;;;;;7.72;3.20;;;;;;;7.49;78.63;99042.91;20987209;28;20086;-72
2021/03/13 14:47:19;;;;;;;5.53;1.92;;;;;;;7.62;77.42;99012.53;20984635;28;20045;-72
2021/03/13 14:57:20;;;;;;;4.97;1.60;;;;;;;7.44;79.28;98998.94;20969485;28;20140;-72
2021/03/13 15:07:21;;;;;;;2.90;1.02;;;;;;;7.38;77.08;99006.28;20976348;28;20033;-72
2021/03/13 15:17:22;;;;;;;4.22;1.00;;;;;;;7.31;81.64;99009.28;20987424;28;20045;-71
2021/03/13 15:27:23;;;;;;;5.65;1.40;;;;;;;6.71;88.17;99073.72;20985666;28;20048;-70
2021/03/13 15:37:24;;;;;;;7.05;1.30;;;;;;;5.88;97.61;99052.66;20986430;28;20090;-70
2021/03/13 15:47:25;;;;;;;6.10;2.40;;;;;;;6.32;99.16;99011.94;20976457;28;20064;-71
2021/03/13 15:57:26;;;;;;;7.15;2.80;;;;;;;6.92;90.63;99016.97;20985669;28;20041;-70
2021/03/13 16:07:27;;;;;;;6.22;1.25;;;;;;;7.08;87.35;99001.25;20987045;28;20102;-70
2021/03/13 16:17:28;;;;;;;4.15;1.52;;;;;;;6.82;87.10;99018.47;20991619;28;20411;-70
2021/03/13 16:27:29;;;;;;;6.72;1.20;;;;;;;7.02;86.21;99017.25;20994526;28;20052;-71
2021/03/13 16:37:31;;;;;;;5.10;1.95;;;;;;;6.94;84.53;99022.09;20992538;28;20051;-71
2021/03/13 16:47:32;;;;;;;7.20;2.75;;;;;;;6.83;85.61;99080.78;20984605;28;20040;-71
2021/03/13 16:57:36;;;;;;;4.38;0.68;;;;;;;5.33;97.37;99127.50;20994877;28;20076;-70
2021/03/13 17:07:37;;;;;;;7.30;1.60;;;;;;;5.26;100.00;99045.72;20976074;28;20082;-70
2021/03/13 17:17:38;;;;;;;6.93;1.90;;;;;;;5.33;100.00;99065.22;20989908;28;20135;-71
2021/03/13 17:27:40;;;;;;;5.25;1.35;;;;;;;5.34;100.00;99087.63;20987818;28;20492;-70
2021/03/13 17:37:41;;;;;;;8.00;2.97;;;;;;;5.16;100.00;99081.69;20980328;28;20045;-70
2021/03/13 17:47:46;;;;;;;9.93;3.78;;;;;;;5.19;100.00;99084.09;20991072;28;20286;-69
2021/03/13 17:57:47;;;;;;;4.57;1.38;;;;;;;5.22;100.00;99098.69;20990250;28;20076;-71
2021/03/13 18:07:48;;;;;;;7.15;1.92;;;;;;;5.09;100.00;99086.34;20989259;28;20496;-71
2021/03/13 18:17:49;;;;;;;7.60;1.80;;;;;;;5.14;100.00;99107.69;20982039;28;20056;-71
2021/03/13 18:27:50;;;;;;;4.70;1.33;;;;;;;5.27;100.00;99107.06;20989820;28;20054;-71
2021/03/13 18:37:51;;;;;;;4.38;1.33;;;;;;;5.21;100.00;99125.53;20987162;28;20041;-71
2021/03/13 18:47:52;;;;;;;5.22;1.20;;;;;;;5.38;96.86;99126.31;20987376;28;20052;-71
2021/03/13 18:57:53;;;;;;;10.32;1.75;;;;;;;5.36;97.72;99164.47;20988830;28;20044;-71
2021/03/13 19:07:54;;;;;;;4.43;1.25;;;;;;;4.99;100.00;99143.97;20978333;28;20071;-71
2021/03/13 19:17:55;;;;;;;5.65;1.50;;;;;;;4.77;100.00;99149.44;20993102;23;20049;-67
2021/03/13 19:27:56;;;;;;;3.72;1.55;;;;;;;4.56;100.00;99159.13;20908202;28;20048;-70
2021/03/13 19:37:57;;;;;;;6.07;1.60;;;;;;;4.48;100.00;99147.44;20990633;28;20098;-69
2021/03/13 19:47:58;;;;;;;7.65;1.58;;;;;;;4.58;100.00;99143.47;21005503;28;20052;-70
2021/03/13 19:57:59;;;;;;;8.88;1.58;;;;;;;4.62;100.00;99150.19;20991429;28;20131;-69
2021/03/13 20:08:01;;;;;;;13.15;3.58;;;;;;;4.48;100.00;99189.72;20971250;28;20453;-68
2021/03/13 20:18:02;;;;;;;4.72;1.13;;;;;;;4.06;100.00;99247.00;20983713;28;20106;-68
2021/03/13 20:28:05;;;;;;;5.80;1.15;;;;;;;3.98;100.00;99233.56;20961973;28;20090;-68
2021/03/13 20:38:06;;;;;;;3.42;1.10;;;;;;;4.03;100.00;99141.00;21009901;28;20036;-67
2021/03/13 20:48:07;;;;;;;5.90;1.63;;;;;;;3.94;100.00;99133.66;21000930;28;20050;-68
2021/03/13 20:58:10;;;;;;;6.75;2.28;;;;;;;3.80;100.00;99136.06;21010690;28;20052;-68
2021/03/13 21:08:11;;;;;;;4.00;1.15;;;;;;;3.85;100.00;99165.16;21039642;28;20041;-68
2021/03/13 21:18:12;;;;;;;5.38;1.42;;;;;;;3.80;100.00;99149.00;21025533;28;20514;-69
2021/03/13 21:28:14;;;;;;;3.47;1.10;;;;;;;3.83;100.00;99154.88;21028204;28;20047;-69
2021/03/13 21:38:16;;;;;;;5.82;2.10;;;;;;;3.82;100.00;99147.19;20935317;28;20511;-68
2021/03/13 21:48:17;;;;;;;4.90;1.98;;;;;;;3.90;100.00;99155.44;20995672;28;20045;-68
2021/03/13 21:58:18;;;;;;;5.97;2.28;;;;;;;3.95;100.00;99160.41;21033296;28;20194;-68
2021/03/13 22:08:19;;;;;;;6.90;2.70;;;;;;;4.14;100.00;99162.03;20982551;28;20068;-68
2021/03/13 22:18:20;;;;;;;7.65;2.88;;;;;;;4.35;100.00;99172.28;20987109;28;20052;-68
2021/03/13 22:28:21;;;;;;;8.20;2.90;;;;;;;4.38;100.00;99166.94;20992060;28;20067;-69
2021/03/13 22:38:32;;;;;;;9.15;3.13;;;;;;;4.35;100.00;99152.38;20986866;28;20192;-69
2021/03/13 22:48:40;;;;;;;10.32;3.67;;;;;;;4.30;100.00;99157.78;20983507;28;20074;-69
2021/03/13 22:58:41;;;;;;;7.72;1.83;;;;;;;4.39;100.00;99153.06;20982893;28;20040;-69
2021/03/13 23:08:42;;;;;;;6.13;1.77;;;;;;;4.32;100.00;99149.94;20977713;28;20044;-69
2021/03/13 23:18:43;;;;;;;5.03;1.60;;;;;;;4.40;100.00;99163.38;20977574;28;20510;-69
2021/03/13 23:28:44;;;;;;;5.65;1.92;;;;;;;4.35;100.00;99167.94;21052885;28;20363;-69
2021/03/13 23:38:46;;;;;;;6.72;2.20;;;;;;;4.41;100.00;99171.97;21036539;28;20123;-69
2021/03/13 23:48:47;;;;;;;6.07;1.90;;;;;;;4.37;100.00;99168.69;21026938;28;20076;-69
2021/03/13 23:58:48;;;;;;;4.25;1.40;;;;;;;4.16;100.00;99173.16;21068005;28;20080;-69
